Time;durP1;ratioP1;P1;durP2;ratioP2;P2;SDS_P1;SDS_P2;PMS_P1;PMS_P2;Temp;Humidity;BMP_temperature;BMP_pressure;BME280_temperature;BME280_humidity;BME280_pressure;Samples;Min_cycle;Max_cycle;Signal;HPM_P1;HPM_P2
2022/07/30 00:01:22;;;;;;;4.93;3.20;;;20.60;94.20;;;;;;7371972;19;20420;-48
2022/07/30 00:03:54;;;;;;;4.20;3.80;;;20.60;93.60;;;;;;7377726;19;20428;-48
2022/07/30 00:06:24;;;;;;;4.10;3.80;;;20.70;93.10;;;;;;7388129;19;20463;-48
2022/07/30 00:08:57;;;;;;;3.77;3.47;;;20.70;93.40;;;;;;7383730;19;20385;-47
2022/07/30 00:11:26;;;;;;;4.40;4.00;;;20.70;92.80;;;;;;7385237;19;20440;-48
2022/07/30 00:13:56;;;;;;;5.43;3.83;;;20.70;93.10;;;;;;7382509;19;20516;-49
2022/07/30 00:16:26;;;;;;;4.03;3.73;;;20.70;94.90;;;;;;7386040;19;20380;-48
2022/07/30 00:18:57;;;;;;;4.63;3.57;;;20.70;95.50;;;;;;7386500;19;20380;-48
2022/07/30 00:21:27;;;;;;;3.70;3.40;;;20.80;96.30;;;;;;7385555;19;20409;-48
2022/07/30 00:23:56;;;;;;;4.47;3.83;;;20.80;96.10;;;;;;7386961;19;20413;-47
2022/07/30 00:26:26;;;;;;;6.73;3.83;;;20.80;96.80;;;;;;7389631;19;20395;-47
2022/07/30 00:28:55;;;;;;;5.80;3.63;;;20.70;95.60;;;;;;7385539;19;20368;-48
2022/07/30 00:31:25;;;;;;;5.50;3.70;;;20.70;96.40;;;;;;7361818;19;20368;-48
2022/07/30 00:33:59;;;;;;;7.00;3.80;;;20.70;97.30;;;;;;7376594;19;20376;-48
2022/07/30 00:36:30;;;;;;;5.50;3.50;;;20.80;96.50;;;;;;7381888;19;20372;-48
2022/07/30 00:38:59;;;;;;;4.40;3.83;;;20.80;96.10;;;;;;7384991;19;20726;-48
2022/07/30 00:41:29;;;;;;;5.10;3.67;;;20.80;98.00;;;;;;7384767;19;20383;-47
2022/07/30 00:43:58;;;;;;;6.50;4.53;;;20.80;96.50;;;;;;7386230;19;21157;-48
2022/07/30 00:46:28;;;;;;;4.63;4.23;;;20.70;97.80;;;;;;7381878;19;20409;-47
2022/07/30 00:49:00;;;;;;;4.33;3.93;;;20.80;98.70;;;;;;7386551;19;20945;-47
2022/07/30 00:51:32;;;;;;;3.97;3.63;;;20.80;98.20;;;;;;7379619;19;20382;-47
2022/07/30 00:54:03;;;;;;;4.87;4.47;;;20.70;98.70;;;;;;7386292;19;20376;-47
2022/07/30 00:56:33;;;;;;;5.40;4.90;;;20.80;99.60;;;;;;7383148;19;20376;-47
2022/07/30 00:59:02;;;;;;;5.87;4.57;;;20.70;99.90;;;;;;7365966;19;20376;-47
2022/07/30 01:01:33;;;;;;;5.13;4.63;;;20.70;99.90;;;;;;7368962;19;20519;-46
2022/07/30 01:04:10;;;;;;;6.23;4.77;;;20.80;99.90;;;;;;7382162;19;20943;-45
2022/07/30 01:06:42;;;;;;;6.00;5.40;;;20.70;99.90;;;;;;7381716;19;20390;-46
2022/07/30 01:09:15;;;;;;;7.93;4.83;;;20.60;99.90;;;;;;7380250;19;20372;-45
2022/07/30 01:11:45;;;;;;;8.30;5.13;;;20.60;99.90;;;;;;7383169;19;20397;-46
2022/07/30 01:14:15;;;;;;;5.43;4.23;;;20.50;99.90;;;;;;7383339;19;20384;-46
2022/07/30 01:16:45;;;;;;;5.97;4.60;;;20.50;99.90;;;;;;7381110;19;20726;-46
2022/07/30 01:22:14;;;;;;;5.37;4.33;;;20.60;99.90;;;;;;7377223;19;20380;-47
2022/07/30 01:24:48;;;;;;;7.27;5.30;;;20.50;99.90;;;;;;7382587;19;20379;-46
2022/07/30 01:27:24;;;;;;;6.17;4.73;;;20.50;99.90;;;;;;7384097;19;20449;-46
2022/07/30 01:29:55;;;;;;;5.70;5.20;;;20.30;99.90;;;;;;7385319;19;20377;-48
2022/07/30 01:32:27;;;;;;;6.13;5.47;;;20.10;99.90;;;;;;7378982;19;20376;-47
2022/07/30 01:34:58;;;;;;;6.17;4.97;;;20.00;99.90;;;;;;7381574;19;20918;-47
2022/07/30 01:37:29;;;;;;;5.20;4.70;;;19.80;99.90;;;;;;7383379;19;20750;-47
2022/07/30 01:39:59;;;;;;;8.93;5.03;;;19.70;99.90;;;;;;7386020;19;20380;-47
2022/07/30 01:42:34;;;;;;;7.80;4.80;;;19.70;99.90;;;;;;7384349;19;20379;-48
2022/07/30 01:45:06;;;;;;;6.47;5.53;;;19.60;99.90;;;;;;7385772;19;20372;-47
2022/07/30 01:47:36;;;;;;;6.43;4.70;;;19.60;99.90;;;;;;7384991;19;20376;-47
2022/07/30 01:50:12;;;;;;;5.80;5.23;;;19.60;99.90;;;;;;7384653;19;20364;-47
2022/07/30 01:52:44;;;;;;;6.30;5.20;;;19.50;99.90;;;;;;7385666;19;21480;-47
2022/07/30 01:55:18;;;;;;;7.53;5.60;;;19.50;99.90;;;;;;7380776;19;21012;-48
2022/07/30 01:57:50;;;;;;;5.37;4.87;;;19.60;99.90;;;;;;7386644;19;20416;-47
2022/07/30 02:00:23;;;;;;;5.60;4.80;;;19.60;99.90;;;;;;7383318;19;20436;-45
2022/07/30 02:02:53;;;;;;;5.30;4.33;;;19.80;99.90;;;;;;7383421;19;20419;-45
2022/07/30 02:05:22;;;;;;;6.87;4.63;;;19.70;99.90;;;;;;7383277;19;20380;-45
2022/07/30 02:07:57;;;;;;;5.70;5.20;;;19.70;99.90;;;;;;7382846;19;20387;-45
2022/07/30 02:10:35;;;;;;;4.90;4.50;;;19.70;99.90;;;;;;7385665;19;20372;-45
2022/07/30 02:13:10;;;;;;;5.63;4.90;;;19.70;99.90;;;;;;7383166;19;20386;-45
2022/07/30 02:15:46;;;;;;;5.50;5.00;;;19.70;99.90;;;;;;7384389;19;20474;-45
2022/07/30 02:18:19;;;;;;;6.33;5.47;;;19.60;99.90;;;;;;7382919;19;20375;-45
2022/07/30 02:20:53;;;;;;;7.20;5.63;;;19.50;99.90;;;;;;7382678;19;20390;-45
2022/07/30 02:23:25;;;;;;;5.20;4.70;;;19.20;99.90;;;;;;7382708;19;20916;-45
2022/07/30 02:25:55;;;;;;;5.67;5.17;;;19.30;99.90;;;;;;7382838;19;20384;-45
2022/07/30 02:28:30;;;;;;;6.30;4.57;;;19.30;99.90;;;;;;7383365;19;20459;-46
2022/07/30 02:31:01;;;;;;;6.00;5.10;;;19.30;99.90;;;;;;7382516;19;20380;-45
2022/07/30 02:33:39;;;;;;;5.80;5.23;;;19.20;99.90;;;;;;7387244;19;20383;-45
2022/07/30 02:36:11;;;;;;;5.20;4.70;;;19.20;99.90;;;;;;7389428;19;20363;-45
2022/07/30 02:38:42;;;;;;;5.83;5.20;;;19.10;99.90;;;;;;7390344;19;20387;-46
2022/07/30 02:41:13;;;;;;;6.27;5.10;;;19.10;99.90;;;;;;7390925;19;20368;-46
2022/07/30 02:43:51;;;;;;;5.20;4.70;;;19.20;99.90;;;;;;7390677;19;20400;-46
2022/07/30 02:46:24;;;;;;;4.87;4.37;;;19.20;99.90;;;;;;7390082;19;20371;-45
2022/07/30 02:49:25;;;;;;;10.17;4.17;;;19.20;99.90;;;;;;7389829;19;20384;-45
2022/07/30 02:51:56;;;;;;;4.70;4.10;;;19.10;99.90;;;;;;7390700;19;20391;-45
2022/07/30 02:54:28;;;;;;;4.03;3.67;;;19.20;99.90;;;;;;7389878;19;21055;-45
2022/07/30 02:56:58;;;;;;;5.53;4.60;;;19.30;99.90;;;;;;7390305;19;20379;-45
2022/07/30 02:59:33;;;;;;;5.93;5.20;;;19.20;99.90;;;;;;7389388;19;20758;-46
2022/07/30 03:02:06;;;;;;;5.73;5.10;;;19.10;99.90;;;;;;7386398;19;20820;-45
2022/07/30 03:04:37;;;;;;;4.80;4.40;;;19.10;99.90;;;;;;7390619;19;20408;-46
2022/07/30 03:07:07;;;;;;;6.87;6.17;;;19.20;99.90;;;;;;7391244;19;20664;-45
2022/07/30 03:09:38;;;;;;;7.00;4.60;;;19.10;99.90;;;;;;7389675;19;20383;-48
2022/07/30 03:12:09;;;;;;;5.27;4.80;;;19.10;99.90;;;;;;7388334;19;20373;-48
2022/07/30 03:14:42;;;;;;;4.77;4.37;;;19.00;99.90;;;;;;7389576;19;20386;-48
2022/07/30 03:17:14;;;;;;;4.80;3.97;;;19.00;99.90;;;;;;7388804;19;20387;-47
2022/07/30 03:19:47;;;;;;;7.30;5.00;;;18.80;99.90;;;;;;7388940;19;20375;-48
2022/07/30 03:22:19;;;;;;;4.77;4.37;;;18.60;99.90;;;;;;7387374;19;20928;-47
2022/07/30 03:24:49;;;;;;;4.80;4.40;;;18.50;99.90;;;;;;7389275;19;20931;-47
2022/07/30 03:27:20;;;;;;;5.17;4.63;;;18.50;99.90;;;;;;7388505;19;20384;-47
2022/07/30 03:29:55;;;;;;;5.00;4.50;;;18.50;99.90;;;;;;7390139;19;20735;-48
2022/07/30 03:32:25;;;;;;;4.87;4.37;;;18.70;99.90;;;;;;7389546;19;20707;-47
2022/07/30 03:34:56;;;;;;;5.57;4.37;;;18.60;99.90;;;;;;7389332;19;20376;-48
2022/07/30 03:37:27;;;;;;;6.23;4.80;;;18.60;99.90;;;;;;7388024;19;20376;-47
2022/07/30 03:39:58;;;;;;;5.20;4.30;;;18.60;99.90;;;;;;7388379;19;20372;-48
2022/07/30 03:42:29;;;;;;;5.20;4.20;;;18.60;99.90;;;;;;7385701;19;20383;-47
2022/07/30 03:45:03;;;;;;;5.47;5.00;;;18.50;99.90;;;;;;7388515;19;20395;-48
2022/07/30 03:47:35;;;;;;;5.57;4.97;;;18.30;99.90;;;;;;7388024;19;20380;-47
2022/07/30 03:50:06;;;;;;;5.73;4.73;;;18.30;99.90;;;;;;7387692;19;20395;-48
2022/07/30 03:52:41;;;;;;;5.17;4.67;;;18.40;99.90;;;;;;7387820;19;20421;-47
2022/07/30 03:55:15;;;;;;;6.50;5.23;;;18.30;99.90;;;;;;7387470;19;20384;-48
2022/07/30 03:57:51;;;;;;;5.40;4.10;;;18.10;99.90;;;;;;7390181;19;20576;-47
2022/07/30 04:00:28;;;;;;;5.30;4.80;;;18.10;99.90;;;;;;7387666;19;20443;-47
2022/07/30 04:02:58;;;;;;;7.73;4.70;;;18.00;99.90;;;;;;7387030;19;20424;-48
2022/07/30 04:05:33;;;;;;;6.47;4.17;;;17.90;99.90;;;;;;7389493;19;20475;-48
2022/07/30 04:08:04;;;;;;;4.90;4.50;;;17.90;99.90;;;;;;7388446;19;20380;-47
2022/07/30 04:10:35;;;;;;;4.60;4.17;;;17.90;99.90;;;;;;7387542;19;20379;-45
2022/07/30 04:13:28;;;;;;;7.80;4.77;;;17.90;99.90;;;;;;7388258;19;20500;-45
2022/07/30 04:16:07;;;;;;;5.63;4.57;;;17.90;99.90;;;;;;7390040;19;20369;-45
2022/07/30 04:18:42;;;;;;;5.47;4.77;;;17.80;99.90;;;;;;7387744;19;20424;-46
2022/07/30 04:21:13;;;;;;;5.70;4.80;;;17.90;99.90;;;;;;7385243;19;20392;-45
2022/07/30 04:23:45;;;;;;;6.00;4.53;;;17.90;99.90;;;;;;7387049;19;20377;-45
2022/07/30 04:26:16;;;;;;;8.07;4.97;;;17.90;99.90;;;;;;7387698;19;20376;-45
2022/07/30 04:28:46;;;;;;;4.43;4.03;;;18.00;99.90;;;;;;7387120;19;20384;-45
2022/07/30 04:31:18;;;;;;;6.20;4.50;;;18.00;99.90;;;;;;7386988;19;20376;-45
2022/07/30 04:33:48;;;;;;;6.80;4.70;;;18.10;99.90;;;;;;7387253;19;20416;-45
2022/07/30 04:36:24;;;;;;;5.80;4.37;;;18.00;99.90;;;;;;7389202;19;20355;-45
2022/07/30 04:38:54;;;;;;;4.97;4.40;;;17.90;99.90;;;;;;7386380;19;20376;-45
2022/07/30 04:41:23;;;;;;;7.33;4.37;;;17.90;99.90;;;;;;7385952;19;20380;-47
2022/07/30 04:44:11;;;;;;;4.60;4.20;;;17.90;99.90;;;;;;7387771;19;20386;-47
2022/07/30 04:46:53;;;;;;;5.47;4.40;;;18.10;99.90;;;;;;7385948;19;20372;-47
2022/07/30 04:49:23;;;;;;;5.80;4.70;;;18.10;99.90;;;;;;7387434;19;20380;-47
2022/07/30 04:51:54;;;;;;;5.30;4.83;;;18.00;99.90;;;;;;7386946;19;20392;-47
2022/07/30 04:54:26;;;;;;;8.03;4.50;;;18.10;99.90;;;;;;7385697;19;21012;-47
2022/07/30 04:56:56;;;;;;;6.63;4.37;;;18.10;99.90;;;;;;7387284;19;20462;-47
2022/07/30 04:59:27;;;;;;;4.60;4.20;;;18.30;99.90;;;;;;7386092;19;20408;-47
2022/07/30 05:02:02;;;;;;;5.10;4.40;;;18.30;99.90;;;;;;7385017;19;20380;-47
2022/07/30 05:04:34;;;;;;;4.80;4.40;;;18.30;99.90;;;;;;7386254;19;20945;-47
2022/07/30 05:07:04;;;;;;;5.57;4.93;;;18.50;99.90;;;;;;7386661;19;21013;-47
2022/07/30 05:09:34;;;;;;;5.00;4.50;;;18.60;99.90;;;;;;7386757;19;20382;-47
2022/07/30 05:12:04;;;;;;;6.53;4.70;;;18.70;99.90;;;;;;7384878;19;20382;-47
2022/07/30 05:14:34;;;;;;;5.33;4.43;;;18.70;99.90;;;;;;7387187;19;21063;-47
2022/07/30 05:17:06;;;;;;;5.90;5.10;;;18.80;99.90;;;;;;7384769;19;20376;-47
2022/07/30 05:19:36;;;;;;;7.70;4.70;;;18.90;99.90;;;;;;7386983;19;20380;-47
2022/07/30 05:22:06;;;;;;;6.10;5.40;;;19.00;99.90;;;;;;7383594;19;20405;-47
2022/07/30 05:24:35;;;;;;;5.30;4.80;;;19.20;99.90;;;;;;7386076;19;20957;-48
2022/07/30 05:27:05;;;;;;;5.40;4.50;;;19.20;99.90;;;;;;7385936;19;20388;-47
2022/07/30 05:29:34;;;;;;;6.80;4.70;;;19.20;99.90;;;;;;7386389;19;20424;-47
2022/07/30 05:32:16;;;;;;;5.80;4.10;;;19.30;99.90;;;;;;7384391;19;20372;-48
2022/07/30 05:34:46;;;;;;;6.30;4.60;;;19.50;99.90;;;;;;7385093;19;20440;-47
2022/07/30 05:37:15;;;;;;;4.67;4.20;;;19.50;99.90;;;;;;7383891;19;20376;-48
2022/07/30 05:39:45;;;;;;;7.47;4.53;;;19.60;99.90;;;;;;7386088;19;20391;-47
2022/07/30 05:42:42;;;;;;;8.00;4.77;;;19.60;98.60;;;;;;7384798;19;20401;-47
2022/07/30 05:45:12;;;;;;;6.37;4.53;;;19.70;99.90;;;;;;7384452;19;20384;-47
2022/07/30 05:47:47;;;;;;;5.00;4.50;;;19.90;99.90;;;;;;7384484;19;20387;-47
2022/07/30 05:50:16;;;;;;;8.37;4.93;;;20.00;99.90;;;;;;7385027;19;20729;-45
2022/07/30 05:52:46;;;;;;;6.53;5.47;;;20.20;97.90;;;;;;7385894;19;20380;-45
2022/07/30 05:55:38;;;;;;;6.93;5.00;;;20.30;97.00;;;;;;7386606;19;20388;-45
2022/07/30 05:58:30;;;;;;;4.73;4.13;;;20.30;96.00;;;;;;7384566;19;20761;-46
2022/07/30 06:01:00;;;;;;;6.77;4.63;;;20.40;93.00;;;;;;7383439;19;20508;-46
2022/07/30 06:03:35;;;;;;;5.50;4.60;;;20.50;93.80;;;;;;7384079;19;20376;-46
2022/07/30 06:06:39;;;;;;;5.10;4.60;;;20.70;94.30;;;;;;7383173;19;20380;-46
2022/07/30 06:09:10;;;;;;;4.73;4.33;;;20.80;92.80;;;;;;7383924;19;20372;-46
2022/07/30 06:11:40;;;;;;;5.30;4.57;;;20.90;93.40;;;;;;7384206;19;20384;-46
2022/07/30 06:14:09;;;;;;;6.00;5.13;;;21.10;90.50;;;;;;7385929;19;20882;-46
2022/07/30 06:16:39;;;;;;;4.43;3.80;;;21.20;89.60;;;;;;7384762;19;20745;-46
2022/07/30 06:19:11;;;;;;;4.63;4.20;;;21.30;88.40;;;;;;7383895;19;20765;-46
2022/07/30 06:21:44;;;;;;;4.73;4.00;;;21.60;87.40;;;;;;7382727;19;20384;-46
2022/07/30 06:24:15;;;;;;;4.47;4.07;;;21.70;84.30;;;;;;7382451;19;20376;-46
2022/07/30 06:26:56;;;;;;;5.20;4.00;;;21.80;82.50;;;;;;7382547;19;20475;-46
2022/07/30 06:29:25;;;;;;;4.53;4.13;;;21.90;81.20;;;;;;7385866;19;20384;-46
2022/07/30 06:31:55;;;;;;;7.87;4.90;;;22.10;82.50;;;;;;7383846;19;20388;-46
2022/07/30 06:34:27;;;;;;;4.87;3.90;;;22.20;77.20;;;;;;7383649;19;20409;-46
2022/07/30 06:36:56;;;;;;;5.20;4.67;;;22.30;78.80;;;;;;7382790;19;20380;-46
2022/07/30 06:39:26;;;;;;;6.27;4.77;;;22.30;76.70;;;;;;7383755;19;20372;-46
2022/07/30 06:41:56;;;;;;;4.50;3.33;;;22.50;75.10;;;;;;7382435;19;21010;-46
2022/07/30 06:44:29;;;;;;;6.60;4.23;;;22.60;76.70;;;;;;7383226;19;20917;-46
2022/07/30 06:47:11;;;;;;;3.60;3.13;;;22.70;75.60;;;;;;7383535;19;20431;-45
2022/07/30 06:49:44;;;;;;;7.87;4.50;;;22.80;74.10;;;;;;7383315;19;20369;-48
2022/07/30 06:52:14;;;;;;;4.60;4.20;;;22.90;71.80;;;;;;7381826;19;20376;-48
2022/07/30 06:54:49;;;;;;;4.90;4.10;;;23.10;71.90;;;;;;7382126;19;20435;-48
2022/07/30 06:57:30;;;;;;;6.30;5.13;;;23.20;69.90;;;;;;7382723;19;21205;-48
2022/07/30 07:00:02;;;;;;;7.33;5.87;;;23.30;66.10;;;;;;7381289;19;20436;-48
2022/07/30 07:02:41;;;;;;;7.77;4.87;;;23.30;64.60;;;;;;7381797;19;20404;-47
2022/07/30 07:05:17;;;;;;;6.53;5.13;;;23.40;64.70;;;;;;7383155;19;20384;-48
2022/07/30 07:07:49;;;;;;;5.33;4.23;;;23.50;64.10;;;;;;7382675;19;20740;-48
2022/07/30 07:10:21;;;;;;;7.03;4.50;;;23.50;64.40;;;;;;7382115;19;20368;-48
2022/07/30 07:12:56;;;;;;;5.43;4.00;;;23.70;64.50;;;;;;7382634;19;20372;-48
2022/07/30 07:15:29;;;;;;;6.47;3.97;;;23.80;63.30;;;;;;7382507;19;20921;-48
2022/07/30 07:17:58;;;;;;;5.63;3.60;;;23.90;63.40;;;;;;7383963;19;20408;-48
2022/07/30 07:20:53;;;;;;;6.17;4.30;;;24.00;63.00;;;;;;7391089;19;20820;-48
2022/07/30 07:23:23;;;;;;;5.73;4.17;;;24.20;61.30;;;;;;7389130;19;20399;-48
2022/07/30 07:25:57;;;;;;;4.90;4.03;;;24.40;61.10;;;;;;7388937;19;20387;-48
2022/07/30 07:28:27;;;;;;;5.37;4.20;;;24.50;59.10;;;;;;7388107;19;20384;-49
2022/07/30 07:30:56;;;;;;;5.60;4.30;;;24.50;59.10;;;;;;7390320;19;20451;-49
2022/07/30 07:33:25;;;;;;;6.10;4.30;;;24.60;59.00;;;;;;7389158;19;20420;-48
2022/07/30 07:35:58;;;;;;;5.80;4.50;;;24.60;57.80;;;;;;7388343;19;20380;-48
2022/07/30 07:38:31;;;;;;;8.33;5.00;;;24.70;57.80;;;;;;7390710;19;20416;-48
2022/07/30 07:41:01;;;;;;;4.20;3.70;;;24.80;56.90;;;;;;7388367;19;20838;-49
2022/07/30 07:43:31;;;;;;;5.53;3.50;;;24.90;56.90;;;;;;7387251;19;20409;-48
2022/07/30 07:46:03;;;;;;;4.40;4.00;;;25.00;55.90;;;;;;7388470;19;21287;-48
2022/07/30 07:48:35;;;;;;;4.33;3.93;;;25.10;56.00;;;;;;7390001;19;20383;-48
2022/07/30 07:51:23;;;;;;;4.57;3.87;;;25.20;55.50;;;;;;7388379;19;20421;-48
2022/07/30 07:53:52;;;;;;;4.13;3.73;;;25.40;55.20;;;;;;7389650;19;20976;-48
2022/07/30 07:56:22;;;;;;;8.00;4.10;;;25.50;54.20;;;;;;7388578;19;20376;-48
2022/07/30 07:58:52;;;;;;;3.43;3.03;;;25.50;54.50;;;;;;7388257;19;20399;-47
2022/07/30 08:01:23;;;;;;;8.67;4.63;;;25.70;54.70;;;;;;7386558;19;20424;-48
2022/07/30 08:04:11;;;;;;;3.97;2.90;;;25.90;53.50;;;;;;7387147;19;21033;-48
2022/07/30 08:07:02;;;;;;;8.43;3.33;;;26.10;52.80;;;;;;7387424;19;20375;-48
2022/07/30 08:09:52;;;;;;;5.20;3.00;;;26.20;52.30;;;;;;7390107;19;20364;-49
2022/07/30 08:12:42;;;;;;;3.17;2.40;;;26.40;52.20;;;;;;7389085;19;20767;-48
2022/07/30 08:15:41;;;;;;;4.67;3.13;;;27.00;52.90;;;;;;7388074;19;20400;-48
2022/07/30 08:18:29;;;;;;;5.30;3.10;;;26.90;52.50;;;;;;7389609;19;20444;-48
2022/07/30 08:21:24;;;;;;;3.80;2.40;;;27.10;51.00;;;;;;7388443;19;20429;-48
2022/07/30 08:23:57;;;;;;;3.93;3.30;;;27.40;50.10;;;;;;7385482;19;20388;-48
2022/07/30 08:26:28;;;;;;;3.80;2.77;;;27.60;48.50;;;;;;7386992;19;20375;-47
2022/07/30 08:29:01;;;;;;;3.87;3.03;;;27.80;47.90;;;;;;7387393;19;20778;-49
2022/07/30 08:31:30;;;;;;;4.80;3.00;;;27.70;47.30;;;;;;7386324;19;20376;-48
2022/07/30 08:34:00;;;;;;;4.20;3.07;;;27.60;47.60;;;;;;7387953;19;20376;-48
2022/07/30 08:36:30;;;;;;;5.53;2.87;;;27.50;48.80;;;;;;7386695;19;20722;-48
2022/07/30 08:39:03;;;;;;;3.60;2.37;;;27.60;48.60;;;;;;7388727;19;20961;-48
2022/07/30 08:41:33;;;;;;;4.20;2.70;;;27.80;47.00;;;;;;7387374;19;20945;-48
2022/07/30 08:44:09;;;;;;;3.00;2.47;;;27.80;45.90;;;;;;7386732;19;20376;-48
2022/07/30 08:46:43;;;;;;;5.60;2.40;;;27.80;46.70;;;;;;7387127;19;20395;-48
2022/07/30 08:49:26;;;;;;;4.67;2.33;;;28.10;47.50;;;;;;7385497;19;20388;-48
2022/07/30 08:51:56;;;;;;;3.90;2.30;;;28.60;46.00;;;;;;7386541;19;20384;-48
2022/07/30 08:54:44;;;;;;;2.90;2.10;;;28.90;46.10;;;;;;7386263;19;20364;-48
2022/07/30 08:57:15;;;;;;;3.47;2.57;;;29.30;44.40;;;;;;7386683;19;20746;-48
2022/07/30 08:59:47;;;;;;;5.67;2.93;;;29.50;43.80;;;;;;7386039;19;20436;-47
2022/07/30 09:02:17;;;;;;;3.23;2.73;;;29.50;42.60;;;;;;7385738;19;20407;-48
2022/07/30 09:05:00;;;;;;;3.23;2.93;;;29.20;43.00;;;;;;7386566;19;20381;-48
2022/07/30 09:07:29;;;;;;;4.40;2.77;;;29.30;42.60;;;;;;7386927;19;20385;-48
2022/07/30 09:10:02;;;;;;;2.87;2.57;;;29.40;42.40;;;;;;7386194;19;20937;-48
2022/07/30 09:12:43;;;;;;;3.10;2.40;;;29.50;41.90;;;;;;7385322;19;20443;-48
2022/07/30 09:15:15;;;;;;;4.00;2.70;;;29.50;42.30;;;;;;7385751;19;20804;-48
2022/07/30 09:17:49;;;;;;;4.47;2.50;;;29.40;42.40;;;;;;7385412;19;20939;-48
2022/07/30 09:20:19;;;;;;;4.27;2.47;;;29.10;42.90;;;;;;7385174;19;20387;-48
2022/07/30 09:22:51;;;;;;;4.90;2.90;;;28.90;43.10;;;;;;7385821;19;20392;-48
2022/07/30 09:25:51;;;;;;;3.10;2.37;;;29.10;42.40;;;;;;7385244;19;20933;-48
2022/07/30 09:28:39;;;;;;;3.53;2.50;;;29.50;42.00;;;;;;7386550;19;20407;-48
2022/07/30 09:31:17;;;;;;;4.17;3.17;;;30.20;41.90;;;;;;7388293;19;20388;-46
2022/07/30 09:34:29;;;;;;;4.23;2.50;;;30.90;40.50;;;;;;7382546;19;20945;-46
2022/07/30 09:37:06;;;;;;;3.30;2.10;;;31.20;39.20;;;;;;7386535;19;20384;-47
2022/07/30 09:40:13;;;;;;;3.60;2.47;;;31.40;39.00;;;;;;7387054;19;20384;-46
2022/07/30 09:43:08;;;;;;;2.73;2.53;;;31.40;38.90;;;;;;7382061;19;20401;-46
2022/07/30 09:45:50;;;;;;;3.60;2.40;;;31.10;38.20;;;;;;7384631;19;20735;-46
2022/07/30 09:48:24;;;;;;;2.70;2.13;;;30.80;38.40;;;;;;7385167;19;20436;-46
2022/07/30 09:50:55;;;;;;;4.70;2.80;;;30.80;38.80;;;;;;7385020;19;20929;-46
2022/07/30 09:53:25;;;;;;;6.10;2.23;;;31.40;38.90;;;;;;7384481;19;21177;-46
2022/07/30 09:55:55;;;;;;;4.43;2.33;;;31.60;37.50;;;;;;7385294;19;20373;-46
2022/07/30 09:58:40;;;;;;;5.87;3.13;;;31.30;37.80;;;;;;7384753;19;20384;-46
2022/07/30 10:01:14;;;;;;;3.07;2.70;;;31.00;39.20;;;;;;7382158;19;20823;-48
2022/07/30 10:03:56;;;;;;;2.60;1.93;;;30.80;39.80;;;;;;7384647;19;20933;-48
2022/07/30 10:06:58;;;;;;;3.20;2.07;;;31.60;38.20;;;;;;7382584;19;20510;-48
2022/07/30 10:09:36;;;;;;;28.37;10.03;;;32.60;37.10;;;;;;7384878;19;20429;-49
2022/07/30 10:12:10;;;;;;;4.03;3.50;;;33.50;35.80;;;;;;7383827;19;20922;-49
2022/07/30 10:14:47;;;;;;;2.90;2.17;;;33.90;34.20;;;;;;7384868;19;20958;-48
2022/07/30 10:17:23;;;;;;;4.70;2.33;;;34.10;34.50;;;;;;7382641;19;20388;-48
2022/07/30 10:20:31;;;;;;;2.90;2.60;;;34.70;34.00;;;;;;7382553;19;20376;-49
2022/07/30 10:23:20;;;;;;;4.70;2.37;;;34.90;32.60;;;;;;7384409;19;20858;-49
2022/07/30 10:26:09;;;;;;;3.27;2.07;;;35.20;32.00;;;;;;7385008;19;20419;-49
2022/07/30 10:28:57;;;;;;;2.03;1.70;;;36.10;31.70;;;;;;7385230;19;20747;-49
2022/07/30 10:31:32;;;;;;;3.33;1.90;;;36.50;30.00;;;;;;7383722;19;20372;-47
2022/07/30 10:34:04;;;;;;;5.40;2.50;;;37.30;29.40;;;;;;7382411;19;20384;-47
2022/07/30 10:36:35;;;;;;;5.00;3.40;;;37.60;29.50;;;;;;7384101;19;21006;-47
2022/07/30 10:39:09;;;;;;;3.97;3.67;;;38.70;28.10;;;;;;7383104;19;20395;-48
2022/07/30 10:41:54;;;;;;;4.20;3.10;;;39.50;28.30;;;;;;7384209;19;20372;-48
2022/07/30 10:44:50;;;;;;;2.60;2.20;;;40.00;30.50;;;;;;7381160;19;20416;-47
2022/07/30 10:47:26;;;;;;;3.97;1.97;;;39.80;38.10;;;;;;7385468;19;20373;-47
2022/07/30 10:50:09;;;;;;;3.70;2.53;;;38.70;32.70;;;;;;7385329;19;20835;-46
2022/07/30 10:52:52;;;;;;;3.93;2.30;;;37.90;34.10;;;;;;7384797;19;20406;-47
2022/07/30 10:55:25;;;;;;;2.93;2.20;;;38.60;32.90;;;;;;7389918;19;20885;-47
2022/07/30 10:58:16;;;;;;;2.20;1.80;;;40.30;30.50;;;;;;7389825;19;20412;-47
2022/07/30 11:01:01;;;;;;;4.50;1.90;;;41.60;25.10;;;;;;7387660;19;20756;-47
2022/07/30 11:03:33;;;;;;;2.07;1.80;;;42.30;24.60;;;;;;7390142;19;20392;-47
2022/07/30 11:06:27;;;;;;;2.30;1.80;;;41.70;24.90;;;;;;7388983;19;20383;-47
2022/07/30 11:08:56;;;;;;;2.13;1.90;;;40.90;25.20;;;;;;7388752;19;20463;-47
2022/07/30 11:11:44;;;;;;;3.67;2.10;;;38.90;27.00;;;;;;7390079;19;20396;-46
2022/07/30 11:14:16;;;;;;;3.40;1.80;;;37.90;28.20;;;;;;7389011;19;20380;-46
2022/07/30 11:17:01;;;;;;;2.70;1.83;;;37.20;27.70;;;;;;7391984;19;21415;-46
2022/07/30 11:19:33;;;;;;;2.80;2.00;;;36.30;29.70;;;;;;7391223;19;21163;-46
2022/07/30 11:22:26;;;;;;;2.53;2.00;;;35.80;28.80;;;;;;7390578;19;20376;-46
2022/07/30 11:24:56;;;;;;;3.10;1.70;;;36.10;29.20;;;;;;7386395;19;20421;-47
2022/07/30 11:27:44;;;;;;;4.40;2.07;;;37.30;28.30;;;;;;7388351;19;20739;-47
2022/07/30 11:30:35;;;;;;;2.20;1.97;;;38.30;27.70;;;;;;7391121;19;20387;-47
2022/07/30 11:33:24;;;;;;;4.17;2.50;;;37.40;27.50;;;;;;7390372;19;20368;-47
2022/07/30 11:36:13;;;;;;;6.40;2.20;;;36.30;28.70;;;;;;7391093;19;20376;-47
2022/07/30 11:38:59;;;;;;;1.70;1.53;;;36.40;28.60;;;;;;7390800;19;20936;-47
2022/07/30 11:41:31;;;;;;;2.43;1.67;;;37.20;27.90;;;;;;7388859;19;20399;-47
2022/07/30 11:44:28;;;;;;;2.20;1.83;;;38.20;26.60;;;;;;7387254;19;20384;-47
2022/07/30 11:47:04;;;;;;;1.70;1.60;;;39.50;26.30;;;;;;7388542;19;20376;-47
2022/07/30 11:49:37;;;;;;;3.00;2.10;;;40.30;25.30;;;;;;7389896;19;20920;-47
2022/07/30 11:52:10;;;;;;;2.90;1.80;;;40.00;25.80;;;;;;7390008;19;20427;-46
2022/07/30 11:54:53;;;;;;;2.80;1.77;;;39.50;25.80;;;;;;7388060;19;20747;-47
2022/07/30 11:57:40;;;;;;;2.73;1.63;;;39.50;26.30;;;;;;7389204;19;20391;-47
2022/07/30 12:00:11;;;;;;;2.63;1.77;;;40.20;25.60;;;;;;7387457;19;20428;-47
2022/07/30 12:02:44;;;;;;;2.80;1.53;;;40.90;25.00;;;;;;7387776;19;20376;-47
2022/07/30 12:05:14;;;;;;;2.20;1.87;;;41.40;25.00;;;;;;7385663;19;20409;-47
2022/07/30 12:07:48;;;;;;;1.80;1.57;;;42.10;24.60;;;;;;7389526;19;20744;-47
2022/07/30 12:10:20;;;;;;;2.30;1.97;;;41.10;30.20;;;;;;7388231;19;20405;-47
2022/07/30 12:12:49;;;;;;;3.57;1.50;;;41.20;30.40;;;;;;7388477;19;20917;-47
2022/07/30 12:15:33;;;;;;;1.90;1.70;;;41.70;30.00;;;;;;7389641;19;20395;-47
2022/07/30 12:18:02;;;;;;;2.87;1.63;;;42.30;29.10;;;;;;7388387;19;20944;-47
2022/07/30 12:20:32;;;;;;;2.93;1.57;;;41.90;30.30;;;;;;7388208;19;20432;-46
2022/07/30 12:23:12;;;;;;;2.93;1.60;;;40.80;31.10;;;;;;7387075;19;20472;-47
2022/07/30 12:25:42;;;;;;;2.07;1.87;;;40.20;31.60;;;;;;7388933;19;20376;-47
2022/07/30 12:28:12;;;;;;;1.80;1.50;;;40.90;30.30;;;;;;7388034;19;20909;-48
2022/07/30 12:30:42;;;;;;;1.30;1.20;;;42.00;30.00;;;;;;7387656;19;20440;-47
2022/07/30 12:33:15;;;;;;;2.03;1.60;;;43.10;34.00;;;;;;7386283;19;20732;-48
2022/07/30 12:35:46;;;;;;;1.83;1.30;;;43.20;22.70;;;;;;7388602;19;20420;-48
2022/07/30 12:38:24;;;;;;;5.23;1.53;;;43.90;22.50;;;;;;7386981;19;20382;-48
2022/07/30 12:40:59;;;;;;;2.23;1.40;;;44.40;22.00;;;;;;7387076;19;20368;-48
2022/07/30 12:43:48;;;;;;;1.50;1.20;;;44.70;21.70;;;;;;7387813;19;20372;-48
2022/07/30 12:46:20;;;;;;;2.27;1.70;;;43.50;22.30;;;;;;7388525;19;20382;-47
2022/07/30 12:49:00;;;;;;;3.13;1.90;;;41.80;23.20;;;;;;7387099;19;20914;-49
2022/07/30 12:51:31;;;;;;;2.50;1.70;;;40.80;24.40;;;;;;7389682;19;20395;-49
2022/07/30 12:54:16;;;;;;;2.57;1.80;;;40.90;23.50;;;;;;7386506;19;20387;-47
2022/07/30 12:56:59;;;;;;;2.90;1.70;;;40.00;24.40;;;;;;7389066;19;20376;-47
2022/07/30 12:59:32;;;;;;;1.97;1.60;;;38.80;25.50;;;;;;7389296;19;20897;-47
2022/07/30 13:02:02;;;;;;;2.07;1.43;;;38.10;26.70;;;;;;7388073;19;20388;-47
2022/07/30 13:04:34;;;;;;;2.50;1.50;;;38.70;25.70;;;;;;7384664;19;20406;-47
2022/07/30 13:07:12;;;;;;;3.20;1.77;;;39.40;25.10;;;;;;7385259;19;20414;-47
2022/07/30 13:09:47;;;;;;;3.13;1.63;;;40.10;24.60;;;;;;7388591;19;20902;-47
2022/07/30 13:12:16;;;;;;;2.40;1.60;;;40.70;24.70;;;;;;7386477;19;20391;-47
2022/07/30 13:14:46;;;;;;;2.13;1.47;;;41.60;23.70;;;;;;7386937;19;20372;-48
2022/07/30 13:17:15;;;;;;;1.50;1.40;;;42.40;23.20;;;;;;7362277;19;20423;-48
2022/07/30 13:19:45;;;;;;;2.27;1.60;;;42.20;22.90;;;;;;7386714;19;20380;-47
2022/07/30 13:22:14;;;;;;;4.40;1.53;;;40.90;24.10;;;;;;7387708;19;20389;-48
2022/07/30 13:24:49;;;;;;;1.70;1.60;;;40.50;24.10;;;;;;7386020;19;21158;-47
2022/07/30 13:27:20;;;;;;;4.20;1.47;;;39.90;24.30;;;;;;7387246;19;20440;-47
2022/07/30 13:29:52;;;;;;;4.63;2.20;;;39.60;24.50;;;;;;7386452;19;20408;-47